Terminal Aerodrome Forecast
Issued by NWS St Louis, MO

Current Version | Previous Version | Text Only | Print | Product List | Glossary On
Versions: 1 2 3 4 5 6 7 8 9 10 11 12 13 14 15 16 17 18 19 20 21 22 23 24
499
FTUS43 KLSX 211739 AAC
TAFCOU
TAF AMD
KCOU 211739Z 2118/2218 21010G17KT P6SM FEW250
     FM212200 19005KT P6SM BKN250
     FM220400 09004KT P6SM VCSH BKN060
     FM220800 03006KT 4SM BR VCSH OVC060
     FM221000 02008KT 3SM BR VCSH OVC015
     FM221200 02010KT 3SM -SHRA BR OVC010=

USA.gov is the U.S. government's official web portal to all federal, state and local government web resources and services.